createdAt,value
2023-05-20T00:02:04.119Z,101332.56
2023-05-20T00:04:31.083Z,101338.16
2023-05-20T00:06:58.096Z,101335.38
2023-05-20T00:09:24.984Z,101335.38
2023-05-20T00:11:51.863Z,101333.72
2023-05-20T00:14:18.715Z,101334.19
2023-05-20T00:16:45.651Z,101335.69
2023-05-20T00:19:12.385Z,101331.28
2023-05-20T00:21:39.207Z,101337.19
2023-05-20T00:24:06.256Z,101336.38
2023-05-20T00:26:32.832Z,101340.81
2023-05-20T00:28:59.600Z,101345.94
2023-05-20T00:31:26.363Z,101337.19
2023-05-20T00:33:53.422Z,101342.78
2023-05-20T00:36:20.705Z,101342.78
2023-05-20T00:38:47.569Z,101339.50
2023-05-20T00:41:14.190Z,101332.25
2023-05-20T00:43:41.468Z,101341.13
2023-05-20T00:46:08.744Z,101336.25
2023-05-20T00:48:43.936Z,101336.25
2023-05-20T00:51:14.767Z,101340.19
2023-05-20T00:53:42.292Z,101334.59
2023-05-20T00:56:09.802Z,101337.38
2023-05-20T00:58:38.027Z,101330.13
2023-05-20T01:01:06.154Z,101332.09
2023-05-20T01:03:33.607Z,101335.72
2023-05-20T01:06:01.221Z,101331.31
2023-05-20T01:08:28.808Z,101331.31
2023-05-20T01:11:03.755Z,101332.94
2023-05-20T01:13:37.000Z,101338.53
2023-05-20T01:16:04.574Z,101336.91
2023-05-20T01:18:33.190Z,101332.47
2023-05-20T01:21:02.586Z,101331.16
2023-05-20T01:23:40.054Z,101341.50
2023-05-20T01:26:08.856Z,101332.66
2023-05-20T01:28:38.707Z,101331.00
2023-05-20T01:31:10.274Z,101331.81
2023-05-20T01:33:42.020Z,101325.41
2023-05-20T01:36:10.102Z,101331.81
2023-05-20T01:38:40.077Z,101312.25
2023-05-20T01:41:07.385Z,101314.22
2023-05-20T01:43:35.024Z,101309.78
2023-05-20T01:46:02.973Z,101308.50
2023-05-20T01:48:29.762Z,101304.53
2023-05-20T01:50:56.907Z,101313.25
2023-05-20T01:53:23.642Z,101303.06
2023-05-20T01:55:50.498Z,101302.06
2023-05-20T01:58:17.277Z,101298.81
2023-05-20T02:00:44.085Z,101299.94
2023-05-20T02:03:11.359Z,101306.34
2023-05-20T02:05:39.009Z,101298.81
2023-05-20T02:08:06.465Z,101304.53
2023-05-20T02:10:33.428Z,101302.06
2023-05-20T02:13:00.457Z,101296.47
2023-05-20T02:15:27.349Z,101303.91
2023-05-20T02:17:54.973Z,101299.47
2023-05-20T02:20:22.018Z,101301.78
2023-05-20T02:22:48.854Z,101302.94
2023-05-20T02:25:15.649Z,101299.66
2023-05-20T02:27:43.677Z,101295.22
2023-05-20T02:30:10.651Z,101303.94
2023-05-20T02:32:38.285Z,101303.13
2023-05-20T02:35:05.767Z,101294.75
2023-05-20T02:37:32.666Z,101301.47
2023-05-20T02:39:59.368Z,101301.00
2023-05-20T02:42:26.135Z,101307.72
2023-05-20T02:44:56.614Z,101297.38
2023-05-20T02:47:23.700Z,101302.50
2023-05-20T02:49:50.560Z,101303.63
2023-05-20T02:52:17.393Z,101294.09
2023-05-20T02:54:44.440Z,101297.22
2023-05-20T02:57:11.383Z,101294.44
2023-05-20T02:59:38.322Z,101287.53
2023-05-20T03:02:05.486Z,101282.78
2023-05-20T03:04:32.524Z,101286.75
2023-05-20T03:06:59.491Z,101287.06
2023-05-20T03:09:26.527Z,101280.31
2023-05-20T03:11:53.320Z,101277.84
2023-05-20T03:14:19.916Z,101277.84
2023-05-20T03:16:46.734Z,101281.00
2023-05-20T03:19:13.590Z,101283.44
2023-05-20T03:21:40.301Z,101284.09
2023-05-20T03:24:07.996Z,101281.31
2023-05-20T03:26:37.565Z,101276.91
2023-05-20T03:29:05.621Z,101275.72
2023-05-20T03:31:32.559Z,101269.66
2023-05-20T03:33:59.382Z,101268.00
2023-05-20T03:36:26.128Z,101272.81
2023-05-20T03:38:52.727Z,101279.19
2023-05-20T03:41:19.610Z,101266.38
2023-05-20T03:43:46.377Z,101273.13
2023-05-20T03:46:13.275Z,101267.53
2023-05-20T03:48:41.148Z,101274.78
2023-05-20T03:51:08.410Z,101276.25
2023-05-20T03:53:35.224Z,101268.69
2023-05-20T03:56:02.214Z,101269.03
2023-05-20T03:58:31.324Z,101271.00
2023-05-20T04:00:58.593Z,101269.34
2023-05-20T04:03:26.147Z,101270.47
2023-05-20T04:05:53.273Z,101275.56
2023-05-20T04:08:22.130Z,101274.94
2023-05-20T04:10:49.420Z,101275.56
2023-05-20T04:13:16.427Z,101273.13
2023-05-20T04:15:43.310Z,101281.84
2023-05-20T04:18:12.303Z,101273.94
2023-05-20T04:20:41.358Z,101277.88
2023-05-20T04:23:09.177Z,101283.47
2023-05-20T04:25:36.643Z,101276.72
2023-05-20T04:28:04.704Z,101273.13
2023-05-20T04:30:33.530Z,101276.25
2023-05-20T04:33:03.679Z,101280.19
2023-05-20T04:35:30.785Z,101282.97
2023-05-20T04:38:02.217Z,101277.41
2023-05-20T04:40:29.266Z,101272.97
2023-05-20T04:42:57.767Z,101274.59
2023-05-20T04:45:25.925Z,101274.59
2023-05-20T04:47:53.440Z,101273.78
2023-05-20T04:50:21.362Z,101276.25
2023-05-20T04:52:48.224Z,101280.19
2023-05-20T04:55:16.003Z,101274.59
2023-05-20T04:57:43.638Z,101273.47
2023-05-20T05:00:12.667Z,101280.66
2023-05-20T05:02:40.762Z,101272.28
2023-05-20T05:05:08.194Z,101273.47
2023-05-20T05:07:35.109Z,101270.31
2023-05-20T05:10:01.956Z,101274.78
2023-05-20T05:12:30.969Z,101269.97
2023-05-20T05:14:59.220Z,101264.38
2023-05-20T05:17:26.887Z,101270.81
2023-05-20T05:19:53.848Z,101270.81
2023-05-20T05:22:20.703Z,101280.50
2023-05-20T05:24:49.685Z,101272.66
2023-05-20T05:27:16.928Z,101265.41
2023-05-20T05:29:43.948Z,101265.41
2023-05-20T05:32:10.636Z,101262.63
2023-05-20T05:34:37.313Z,101268.19
2023-05-20T05:37:04.298Z,101267.06
2023-05-20T05:39:31.078Z,101273.13
2023-05-20T05:41:57.900Z,101261.47
2023-05-20T05:44:24.985Z,101258.69
2023-05-20T05:46:51.744Z,101263.09
2023-05-20T05:49:18.874Z,101271.97
2023-05-20T05:51:45.599Z,101265.56
2023-05-20T05:54:12.620Z,101261.94
2023-05-20T05:56:39.608Z,101259.16
2023-05-20T05:59:06.363Z,101251.25
2023-05-20T06:01:33.273Z,101255.22
2023-05-20T06:04:00.235Z,101252.91
2023-05-20T06:06:27.189Z,101245.81
2023-05-20T06:08:54.254Z,101245.34
2023-05-20T06:11:21.886Z,101243.03
2023-05-20T06:13:48.570Z,101250.59
2023-05-20T06:16:15.645Z,101241.53
2023-05-20T06:18:42.936Z,101244.31
2023-05-20T06:21:09.689Z,101242.72
2023-05-20T06:23:36.750Z,101237.91
2023-05-20T06:26:05.924Z,101237.13
2023-05-20T06:28:32.899Z,101237.25
2023-05-20T06:30:59.818Z,101232.31
2023-05-20T06:33:29.899Z,101234.81
2023-05-20T06:36:01.877Z,101233.16
2023-05-20T06:38:29.076Z,101229.22
2023-05-20T06:40:55.821Z,101223.63
2023-05-20T06:43:22.648Z,101223.63
2023-05-20T06:45:54.842Z,101218.88
2023-05-20T06:48:27.365Z,101219.00
2023-05-20T06:50:54.442Z,101209.00
2023-05-20T06:53:21.534Z,101206.19
2023-05-20T06:55:48.298Z,101213.41
2023-05-20T06:58:15.148Z,101212.59
2023-05-20T07:00:43.379Z,101200.59
2023-05-20T07:03:11.671Z,101196.63
2023-05-20T07:05:39.321Z,101193.84
2023-05-20T07:08:07.454Z,101196.63
2023-05-20T07:10:34.636Z,101198.28
2023-05-20T07:13:02.027Z,101199.13
2023-05-20T07:15:28.650Z,101200.75
2023-05-20T07:17:55.927Z,101203.88
2023-05-20T07:20:22.695Z,101199.13
2023-05-20T07:22:50.896Z,101194.34
2023-05-20T07:25:30.742Z,101199.94
2023-05-20T07:27:57.889Z,101195.19
2023-05-20T07:30:24.976Z,101197.63
2023-05-20T07:33:09.295Z,101192.03
2023-05-20T07:35:36.648Z,101193.69
2023-05-20T07:38:03.680Z,101184.47
2023-05-20T07:40:30.930Z,101190.53
2023-05-20T07:42:57.564Z,101188.56
2023-05-20T07:45:25.025Z,101189.72
2023-05-20T07:47:51.862Z,101185.78
2023-05-20T07:50:18.858Z,101182.50
2023-05-20T07:52:56.015Z,101180.19
2023-05-20T07:55:26.504Z,101172.94
2023-05-20T07:57:53.626Z,101170.66
2023-05-20T08:00:22.229Z,101173.44
2023-05-20T08:02:49.001Z,101172.28
2023-05-20T08:05:22.845Z,101169.97
2023-05-20T08:07:49.754Z,101169.97
2023-05-20T08:10:17.656Z,101168.81
2023-05-20T08:12:46.805Z,101167.66
2023-05-20T08:15:14.071Z,101173.25
2023-05-20T08:17:41.063Z,101165.34
2023-05-20T08:20:09.531Z,101163.38
2023-05-20T08:22:37.857Z,101165.81
2023-05-20T08:25:07.228Z,101168.13
2023-05-20T08:27:34.243Z,101166.97
2023-05-20T08:30:01.239Z,101158.59
2023-05-20T08:32:28.382Z,101163.00
2023-05-20T08:34:55.264Z,101157.41
2023-05-20T08:37:22.109Z,101154.63
2023-05-20T08:39:50.010Z,101154.31
2023-05-20T08:42:22.138Z,101156.75
2023-05-20T08:44:50.112Z,101151.16
2023-05-20T08:47:17.562Z,101157.56
2023-05-20T08:49:44.235Z,101163.97
2023-05-20T08:52:13.705Z,101151.97
2023-05-20T08:54:50.639Z,101157.25
2023-05-20T08:57:17.889Z,101154.44
2023-05-20T08:59:47.021Z,101152.81
2023-05-20T09:02:14.253Z,101151.31
2023-05-20T09:04:41.224Z,101146.88
2023-05-20T09:07:08.005Z,101153.28
2023-05-20T09:09:35.724Z,101146.06
2023-05-20T09:12:03.342Z,101145.72
2023-05-20T09:14:32.752Z,101144.09
2023-05-20T09:16:59.722Z,101139.31
2023-05-20T09:19:26.566Z,101139.31
2023-05-20T09:21:55.194Z,101128.94
2023-05-20T09:24:26.897Z,101128.94
2023-05-20T09:26:53.863Z,101125.00
2023-05-20T09:29:21.804Z,101118.59
2023-05-20T09:31:49.918Z,101117.75
2023-05-20T09:34:17.697Z,101120.22
2023-05-20T09:36:45.366Z,101116.94
2023-05-20T09:39:17.125Z,101124.66
2023-05-20T09:41:55.697Z,101120.69
2023-05-20T09:44:23.559Z,101111.50
2023-05-20T09:46:52.626Z,101117.09
2023-05-20T09:49:21.360Z,101110.66
2023-05-20T09:51:48.140Z,101111.16
2023-05-20T09:54:18.169Z,101110.66
2023-05-20T09:56:47.259Z,101109.53
2023-05-20T09:59:18.817Z,101108.38
2023-05-20T10:01:46.567Z,101112.78
2023-05-20T10:04:16.661Z,101106.06
2023-05-20T10:07:02.146Z,101117.22
2023-05-20T10:09:37.898Z,101105.22
2023-05-20T10:12:40.077Z,101110.50
2023-05-20T10:15:30.531Z,101106.88
2023-05-20T10:18:01.445Z,101100.09
2023-05-20T10:20:28.568Z,101105.38
2023-05-20T10:22:57.823Z,101105.38
2023-05-20T10:25:28.247Z,101094.19
2023-05-20T10:28:08.108Z,101098.63
2023-05-20T10:30:36.112Z,101096.63
2023-05-20T10:33:06.394Z,101090.72
2023-05-20T10:35:33.671Z,101095.13
2023-05-20T10:38:11.246Z,101089.53
2023-05-20T10:40:38.163Z,101081.16
2023-05-20T10:43:12.533Z,101089.66
2023-05-20T10:45:52.319Z,101078.50
2023-05-20T10:48:25.409Z,101086.56
2023-05-20T10:50:56.889Z,101086.19
2023-05-20T10:53:33.436Z,101074.19
2023-05-20T10:56:01.495Z,101077.00
2023-05-20T10:58:28.278Z,101087.47
2023-05-20T11:00:56.261Z,101080.75
2023-05-20T11:03:24.433Z,101073.50
2023-05-20T11:05:51.828Z,101071.22
2023-05-20T11:08:28.396Z,101065.25
2023-05-20T11:10:59.483Z,101062.47
2023-05-20T11:13:27.161Z,101074.13
2023-05-20T11:15:54.312Z,101053.38
2023-05-20T11:18:21.183Z,101051.41
2023-05-20T11:20:47.932Z,101051.88
2023-05-20T11:23:15.817Z,101047.13
2023-05-20T11:25:42.838Z,101043.50
2023-05-20T11:28:14.025Z,101037.91
2023-05-20T11:30:45.132Z,101035.25
2023-05-20T11:33:13.602Z,101028.00
2023-05-20T11:35:49.207Z,101024.88
2023-05-20T11:38:16.817Z,101024.19
2023-05-20T11:40:51.264Z,101030.94
2023-05-20T11:43:19.818Z,101013.00
2023-05-20T11:45:52.539Z,101018.59
2023-05-20T11:48:19.871Z,101008.69
2023-05-20T11:50:48.319Z,101011.13
2023-05-20T11:53:17.885Z,100999.63
2023-05-20T11:55:52.810Z,101004.38
2023-05-20T11:58:21.284Z,101000.44
2023-05-20T12:00:53.128Z,101013.25
2023-05-20T12:03:24.316Z,101003.34
2023-05-20T12:05:51.572Z,101003.69
2023-05-20T12:08:18.563Z,101007.81
2023-05-20T12:10:45.455Z,100999.06
2023-05-20T12:13:13.673Z,100995.56
2023-05-20T12:15:40.937Z,100998.38
2023-05-20T12:18:07.773Z,100992.09
2023-05-20T12:20:35.281Z,100997.81
2023-05-20T12:23:02.804Z,100995.00
2023-05-20T12:25:29.673Z,100993.03
2023-05-20T12:27:56.644Z,100983.47
2023-05-20T12:30:24.443Z,100991.50
2023-05-20T12:32:52.245Z,100984.41
2023-05-20T12:35:46.118Z,100986.06
2023-05-20T12:38:13.044Z,100989.19
2023-05-20T12:40:39.949Z,100986.06
2023-05-20T12:43:06.906Z,100972.53
2023-05-20T12:45:33.595Z,100973.47
2023-05-20T12:48:00.983Z,100975.91
2023-05-20T12:50:28.078Z,100981.97
2023-05-20T12:52:55.079Z,100975.56
2023-05-20T12:55:21.852Z,100982.78
2023-05-20T12:57:48.685Z,100981.63
2023-05-20T13:00:16.070Z,100984.88
2023-05-20T13:02:43.560Z,100990.47
2023-05-20T13:05:11.294Z,100977.69
2023-05-20T13:07:38.413Z,100983.28
2023-05-20T13:10:07.101Z,100986.06
2023-05-20T13:12:35.823Z,100990.16
2023-05-20T13:15:03.255Z,100988.50
2023-05-20T13:17:30.375Z,100978.94
2023-05-20T13:19:57.027Z,100990.25
2023-05-20T13:22:23.795Z,100981.84
2023-05-20T13:24:50.618Z,100981.84
2023-05-20T13:27:17.319Z,100976.25
2023-05-20T13:29:43.980Z,100981.84
2023-05-20T13:32:10.901Z,100980.25
2023-05-20T13:34:38.808Z,100981.06
2023-05-20T13:37:06.032Z,100981.06
2023-05-20T13:39:32.791Z,100980.25
2023-05-20T13:41:59.629Z,100973.44
2023-05-20T13:44:26.460Z,100977.91
2023-05-20T13:46:53.379Z,100972.31
2023-05-20T13:49:21.208Z,100972.31
2023-05-20T13:51:48.005Z,100974.63
2023-05-20T13:54:14.985Z,100967.16
2023-05-20T13:56:42.636Z,100970.44
2023-05-20T13:59:09.288Z,100964.84
2023-05-20T14:01:36.664Z,100970.78
2023-05-20T14:04:04.635Z,100965.31
2023-05-20T14:06:32.023Z,100964.97
2023-05-20T14:08:58.785Z,100967.41
2023-05-20T14:11:25.686Z,100952.59
2023-05-20T14:13:52.408Z,100947.00
2023-05-20T14:16:19.308Z,100952.59
2023-05-20T14:18:46.175Z,100945.47
2023-05-20T14:21:12.914Z,100939.16
2023-05-20T14:23:44.347Z,100948.75
2023-05-20T14:26:11.310Z,100938.72
2023-05-20T14:28:38.173Z,100936.75
2023-05-20T14:31:07.453Z,100947.13
2023-05-20T14:33:35.811Z,100934.28
2023-05-20T14:36:02.474Z,100939.16
2023-05-20T14:38:29.274Z,100931.59
2023-05-20T14:40:55.962Z,100926.44
2023-05-20T14:43:22.637Z,100926.56
2023-05-20T14:45:49.461Z,100927.41
2023-05-20T14:48:16.344Z,100925.75
2023-05-20T14:50:43.066Z,100930.53
2023-05-20T14:53:09.744Z,100920.97
2023-05-20T14:55:36.594Z,100924.13
2023-05-20T14:58:03.351Z,100916.06
2023-05-20T15:00:30.130Z,100917.72
2023-05-20T15:02:56.871Z,100913.28
2023-05-20T15:05:23.690Z,100915.25
2023-05-20T15:07:51.519Z,100915.25
2023-05-20T15:10:18.541Z,100915.63
2023-05-20T15:12:45.732Z,100911.66
2023-05-20T15:15:12.544Z,100910.03
2023-05-20T15:17:39.464Z,100912.81
2023-05-20T15:20:06.806Z,100908.88
2023-05-20T15:22:33.637Z,100913.97
2023-05-20T15:25:00.598Z,100908.03
2023-05-20T15:27:27.294Z,100914.47
2023-05-20T15:29:53.988Z,100910.47
2023-05-20T15:32:20.776Z,100914.09
2023-05-20T15:34:47.795Z,100919.34
2023-05-20T15:37:14.681Z,100909.78
2023-05-20T15:39:41.802Z,100908.13
2023-05-20T15:42:14.048Z,100908.13
2023-05-20T15:44:41.006Z,100904.53
2023-05-20T15:47:07.711Z,100909.78
2023-05-20T15:49:34.505Z,100900.94
2023-05-20T15:52:03.938Z,100908.97
2023-05-20T15:54:32.030Z,100908.13
2023-05-20T15:56:58.887Z,100905.69
2023-05-20T15:59:25.890Z,100904.53
2023-05-20T16:01:52.741Z,100908.97
2023-05-20T16:04:20.169Z,100910.16
2023-05-20T16:06:47.342Z,100911.31
2023-05-20T16:09:14.108Z,100909.31
2023-05-20T16:11:41.050Z,100910.47
2023-05-20T16:14:07.722Z,100911.31
2023-05-20T16:16:36.067Z,100904.88
2023-05-20T16:19:03.635Z,100910.84
2023-05-20T16:21:31.315Z,100908.03
2023-05-20T16:23:58.108Z,100905.59
2023-05-20T16:26:26.131Z,100906.78
2023-05-20T16:28:52.756Z,100902.31
2023-05-20T16:31:19.553Z,100901.16
2023-05-20T16:33:46.887Z,100916.78
2023-05-20T16:36:13.849Z,100907.94
2023-05-20T16:38:40.686Z,100915.97
2023-05-20T16:41:07.328Z,100914.34
2023-05-20T16:43:34.038Z,100914.69
2023-05-20T16:46:01.061Z,100911.06
2023-05-20T16:48:27.886Z,100906.78
2023-05-20T16:50:54.743Z,100913.53
2023-05-20T16:53:21.652Z,100913.53
2023-05-20T16:55:48.235Z,100921.56
2023-05-20T16:58:15.024Z,100924.72
2023-05-20T17:00:41.814Z,100917.97
2023-05-20T17:03:08.728Z,100909.56
2023-05-20T17:05:35.394Z,100922.38
2023-05-20T17:08:02.097Z,100921.22
2023-05-20T17:10:29.590Z,100913.84
2023-05-20T17:12:56.599Z,100905.94
2023-05-20T17:15:23.697Z,100912.31
2023-05-20T17:17:51.332Z,100912.31
2023-05-20T17:20:18.126Z,100916.31
2023-05-20T17:22:44.986Z,100914.69
2023-05-20T17:25:14.314Z,100918.63
2023-05-20T17:27:41.148Z,100923.78
2023-05-20T17:30:08.318Z,100915.38
2023-05-20T17:32:35.597Z,100910.59
2023-05-20T17:35:02.722Z,100910.59
2023-05-20T17:37:29.602Z,100912.94
2023-05-20T17:39:56.635Z,100913.72
2023-05-20T17:42:23.616Z,100916.91
2023-05-20T17:44:56.552Z,100914.47
2023-05-20T17:47:23.542Z,100910.47
2023-05-20T17:49:50.611Z,100907.22
2023-05-20T17:52:17.399Z,100907.22
2023-05-20T17:54:44.098Z,100912.13
2023-05-20T17:57:11.111Z,100912.81
2023-05-20T17:59:42.036Z,100918.41
2023-05-20T18:02:09.106Z,100911.19
2023-05-20T18:04:35.964Z,100914.47
2023-05-20T18:07:04.128Z,100915.25
2023-05-20T18:09:31.198Z,100918.06
2023-05-20T18:11:58.042Z,100916.78
2023-05-20T18:14:26.588Z,100918.41
2023-05-20T18:16:57.568Z,100915.97
2023-05-20T18:19:25.312Z,100921.22
2023-05-20T18:21:52.318Z,100919.59
2023-05-20T18:24:20.548Z,100929.16
2023-05-20T18:26:47.466Z,100931.13
2023-05-20T18:29:14.383Z,100928.69
2023-05-20T18:31:43.314Z,100934.28
2023-05-20T18:34:10.796Z,100937.56
2023-05-20T18:36:37.883Z,100935.91
2023-05-20T18:39:04.985Z,100940.81
2023-05-20T18:41:43.112Z,100945.97
2023-05-20T18:44:15.012Z,100946.75
2023-05-20T18:46:42.517Z,100939.16
2023-05-20T18:49:10.670Z,100939.16
2023-05-20T18:51:40.897Z,100938.72
2023-05-20T18:54:07.735Z,100946.75
2023-05-20T18:56:34.991Z,100948.75
2023-05-20T18:59:01.866Z,100940.00
2023-05-20T19:01:28.702Z,100948.75
2023-05-20T19:03:55.747Z,100944.66
2023-05-20T19:06:22.987Z,100951.56
2023-05-20T19:08:49.972Z,100949.91
2023-05-20T19:11:17.062Z,100951.06
2023-05-20T19:13:43.826Z,100948.75
2023-05-20T19:16:10.844Z,100947.94
2023-05-20T19:18:37.817Z,100954.34
2023-05-20T19:21:04.850Z,100952.72
2023-05-20T19:23:32.506Z,100949.91
2023-05-20T19:25:59.498Z,100947.13
2023-05-20T19:28:26.231Z,100947.94
2023-05-20T19:30:53.789Z,100956.66
2023-05-20T19:33:20.913Z,100956.66
2023-05-20T19:35:47.726Z,100955.06
2023-05-20T19:38:14.672Z,100947.81
2023-05-20T19:40:41.419Z,100966.25
2023-05-20T19:43:08.027Z,100958.31
2023-05-20T19:45:36.506Z,100955.06
2023-05-20T19:48:06.514Z,100961.13
2023-05-20T19:50:34.233Z,100958.19
2023-05-20T19:53:03.405Z,100960.66
2023-05-20T19:55:30.126Z,100959.00
2023-05-20T19:57:57.303Z,100963.44
2023-05-20T20:00:24.304Z,100963.09
2023-05-20T20:02:51.326Z,100955.84
2023-05-20T20:05:18.792Z,100963.78
2023-05-20T20:07:46.037Z,100957.03
2023-05-20T20:10:12.832Z,100959.13
2023-05-20T20:12:39.560Z,100951.06
2023-05-20T20:15:07.270Z,100956.22
2023-05-20T20:17:34.108Z,100961.00
2023-05-20T20:20:01.229Z,100956.22
2023-05-20T20:22:28.016Z,100955.06
2023-05-20T20:24:54.967Z,100954.34
2023-05-20T20:27:23.773Z,100964.84
2023-05-20T20:29:51.307Z,100945.84
2023-05-20T20:32:18.713Z,100945.00
2023-05-20T20:34:46.090Z,100943.75
2023-05-20T20:37:15.266Z,100942.47
2023-05-20T20:39:45.289Z,100944.44
2023-05-20T20:42:12.338Z,100949.22
2023-05-20T20:44:42.569Z,100942.47
2023-05-20T20:47:10.064Z,100951.56
2023-05-20T20:49:36.870Z,100947.56
2023-05-20T20:52:03.719Z,100948.75
2023-05-20T20:54:32.796Z,100940.38
2023-05-20T20:57:00.045Z,100935.91
2023-05-20T20:59:26.958Z,100950.38
2023-05-20T21:01:54.787Z,100938.34
2023-05-20T21:04:21.624Z,100939.16
2023-05-20T21:06:48.369Z,100935.22
2023-05-20T21:09:15.867Z,100940.81
2023-05-20T21:11:42.936Z,100931.97
2023-05-20T21:14:10.358Z,100936.75
2023-05-20T21:16:37.376Z,100936.75
2023-05-20T21:19:04.243Z,100935.91
2023-05-20T21:21:31.147Z,100933.56
2023-05-20T21:23:58.032Z,100932.75
2023-05-20T21:26:25.777Z,100926.38
2023-05-20T21:28:52.651Z,100932.66
2023-05-20T21:31:19.508Z,100933.13
2023-05-20T21:33:46.342Z,100934.28
2023-05-20T21:36:13.405Z,100934.75
2023-05-20T21:38:40.421Z,100930.31
2023-05-20T21:41:07.873Z,100934.28
2023-05-20T21:43:36.050Z,100928.69
2023-05-20T21:46:03.020Z,100927.84
2023-05-20T21:48:29.856Z,100930.31
2023-05-20T21:50:56.661Z,100933.13
2023-05-20T21:53:23.394Z,100931.47
2023-05-20T21:55:50.564Z,100935.47
2023-05-20T21:58:17.399Z,100942.66
2023-05-20T22:00:45.099Z,100941.06
2023-05-20T22:03:12.992Z,100928.69
2023-05-20T22:05:41.093Z,100931.03
2023-05-20T22:08:08.030Z,100931.47
2023-05-20T22:10:36.523Z,100935.47
2023-05-20T22:13:03.591Z,100931.38
2023-05-20T22:15:31.450Z,100922.63
2023-05-20T22:17:58.811Z,100923.00
2023-05-20T22:20:25.913Z,100923.00
2023-05-20T22:22:52.633Z,100921.34
2023-05-20T22:25:19.521Z,100922.88
2023-05-20T22:27:46.516Z,100921.34
2023-05-20T22:30:13.634Z,100915.75
2023-05-20T22:32:40.873Z,100916.56
2023-05-20T22:35:08.177Z,100903.72
2023-05-20T22:37:35.079Z,100897.31
2023-05-20T22:40:02.060Z,100898.13
2023-05-20T22:42:28.782Z,100891.72
2023-05-20T22:44:55.603Z,100891.59
2023-05-20T22:47:22.380Z,100883.69
2023-05-20T22:49:49.182Z,100880.53
2023-05-20T22:52:15.829Z,100896.50
2023-05-20T22:54:42.701Z,100883.19
2023-05-20T22:57:09.440Z,100878.91
2023-05-20T22:59:36.583Z,100871.66
2023-05-20T23:02:03.895Z,100875.28
2023-05-20T23:04:30.725Z,100872.50
2023-05-20T23:06:59.418Z,100871.66
2023-05-20T23:09:26.418Z,100868.41
2023-05-20T23:11:53.093Z,100868.06
2023-05-20T23:14:20.198Z,100869.22
2023-05-20T23:16:46.967Z,100862.00
2023-05-20T23:19:13.938Z,100859.66
2023-05-20T23:21:40.834Z,100856.41
2023-05-20T23:24:07.575Z,100859.19
2023-05-20T23:26:37.800Z,100856.41
2023-05-20T23:29:05.276Z,100859.53
2023-05-20T23:31:32.903Z,100857.09
2023-05-20T23:34:00.992Z,100850.69
2023-05-20T23:36:29.176Z,100847.88
2023-05-20T23:38:56.707Z,100846.63
2023-05-20T23:41:23.682Z,100848.25
2023-05-20T23:43:50.792Z,100845.34
2023-05-20T23:46:18.707Z,100845.34
2023-05-20T23:48:48.292Z,100838.56
2023-05-20T23:51:16.363Z,100841.72
2023-05-20T23:53:44.469Z,100839.25
2023-05-20T23:56:11.521Z,100841.28
2023-05-20T23:58:38.500Z,100835.66
